createdAt,value
2019-05-13T00:01:55.342Z,11.60
2019-05-13T00:04:27.168Z,11.60
2019-05-13T00:06:58.941Z,11.60
2019-05-13T00:09:30.862Z,11.60
2019-05-13T00:12:04.781Z,11.60
2019-05-13T00:14:36.162Z,11.50
2019-05-13T00:17:07.928Z,11.50
2019-05-13T00:19:39.629Z,11.50
2019-05-13T00:22:13.913Z,11.50
2019-05-13T00:24:45.134Z,11.50
2019-05-13T00:27:19.765Z,11.40
2019-05-13T00:29:53.436Z,11.40
2019-05-13T00:32:25.019Z,11.40
2019-05-13T00:34:56.785Z,11.40
2019-05-13T00:37:28.579Z,11.30
2019-05-13T00:40:00.407Z,11.40
2019-05-13T00:42:33.414Z,11.30
2019-05-13T00:45:06.001Z,11.30
2019-05-13T00:47:37.694Z,11.30
2019-05-13T00:50:13.921Z,11.30
2019-05-13T00:52:45.132Z,11.20
2019-05-13T00:55:16.870Z,10.70
2019-05-13T00:57:48.601Z,11.20
2019-05-13T01:00:20.535Z,11.20
2019-05-13T01:02:53.376Z,11.20
2019-05-13T01:05:25.164Z,11.10
2019-05-13T01:07:56.855Z,11.10
2019-05-13T01:10:28.711Z,11.10
2019-05-13T01:13:00.438Z,11.10
2019-05-13T01:15:34.259Z,11.00
2019-05-13T01:18:05.725Z,11.00
2019-05-13T01:20:37.372Z,11.00
2019-05-13T01:23:09.118Z,11.00
2019-05-13T01:25:40.812Z,11.00
2019-05-13T01:28:13.449Z,10.90
2019-05-13T01:30:45.476Z,10.90
2019-05-13T01:33:17.229Z,10.90
2019-05-13T01:35:48.891Z,10.80
2019-05-13T01:38:20.605Z,10.80
2019-05-13T01:40:53.923Z,10.80
2019-05-13T01:43:25.836Z,10.80
2019-05-13T01:45:57.505Z,10.80
2019-05-13T01:48:29.306Z,10.70
2019-05-13T01:51:00.972Z,10.70
2019-05-13T01:53:33.587Z,10.60
2019-05-13T01:56:05.511Z,10.60
2019-05-13T01:58:38.323Z,10.60
2019-05-13T02:01:10.250Z,11.00
2019-05-13T02:03:44.098Z,10.60
2019-05-13T02:06:15.293Z,10.50
2019-05-13T02:08:47.102Z,10.50
2019-05-13T02:11:18.808Z,10.50
2019-05-13T02:13:53.997Z,10.40
2019-05-13T02:16:25.982Z,10.40
2019-05-13T02:18:57.717Z,10.40
2019-05-13T02:21:30.702Z,10.40
2019-05-13T02:24:04.331Z,10.30
2019-05-13T02:26:35.815Z,10.30
2019-05-13T02:29:07.523Z,10.20
2019-05-13T02:31:46.604Z,10.20
2019-05-13T02:34:13.601Z,10.10
2019-05-13T02:36:45.690Z,10.10
2019-05-13T02:39:17.342Z,10.00
2019-05-13T02:41:52.024Z,10.00
2019-05-13T02:44:22.832Z,9.90
2019-05-13T02:46:54.494Z,9.90
2019-05-13T02:49:26.149Z,9.80
2019-05-13T02:51:57.889Z,9.80
2019-05-13T02:54:29.552Z,9.70
2019-05-13T02:57:03.851Z,9.70
2019-05-13T02:59:34.571Z,9.60
2019-05-13T03:02:06.260Z,9.60
2019-05-13T03:04:37.997Z,10.00
2019-05-13T03:07:12.028Z,9.60
2019-05-13T03:09:43.081Z,9.60
2019-05-13T03:12:14.844Z,9.50
2019-05-13T03:14:48.565Z,9.50
2019-05-13T03:17:32.679Z,9.50
2019-05-13T03:20:04.751Z,9.40
2019-05-13T03:22:36.432Z,9.40
2019-05-13T03:25:08.347Z,9.40
2019-05-13T03:27:42.852Z,9.30
2019-05-13T03:30:16.357Z,9.30
2019-05-13T03:32:55.189Z,9.20
2019-05-13T03:35:26.445Z,9.20
2019-05-13T03:37:55.876Z,9.20
2019-05-13T03:40:32.815Z,9.10
2019-05-13T03:43:03.258Z,9.10
2019-05-13T03:45:37.969Z,9.10
2019-05-13T03:48:12.082Z,9.10
2019-05-13T03:50:43.565Z,9.00
2019-05-13T03:53:15.416Z,9.00
2019-05-13T03:55:47.431Z,9.00
2019-05-13T03:58:23.905Z,9.00
2019-05-13T04:00:56.056Z,9.00
2019-05-13T04:03:27.862Z,8.90
2019-05-13T04:06:03.259Z,8.90
2019-05-13T04:08:34.714Z,8.90
2019-05-13T04:11:06.395Z,8.90
2019-05-13T04:13:38.204Z,8.90
2019-05-13T04:16:12.824Z,8.90
2019-05-13T04:18:43.640Z,8.90
2019-05-13T04:21:15.403Z,8.90
2019-05-13T04:23:47.154Z,8.90
2019-05-13T04:26:18.828Z,8.90
2019-05-13T04:28:52.573Z,8.90
2019-05-13T04:31:24.494Z,9.00
2019-05-13T04:33:56.197Z,9.00
2019-05-13T04:36:27.882Z,9.10
2019-05-13T04:39:03.004Z,9.10
2019-05-13T04:41:33.507Z,9.10
2019-05-13T04:44:05.310Z,9.20
2019-05-13T04:46:36.979Z,9.20
2019-05-13T04:49:08.760Z,9.20
2019-05-13T04:51:42.098Z,9.30
2019-05-13T04:54:14.636Z,9.30
2019-05-13T04:56:46.543Z,9.30
2019-05-13T04:59:18.455Z,9.40
2019-05-13T05:02:55.310Z,9.40
2019-05-13T05:06:03.493Z,9.40
2019-05-13T05:09:12.676Z,9.50
2019-05-13T05:12:57.938Z,9.60
2019-05-13T05:16:24.058Z,9.60
2019-05-13T05:19:48.312Z,9.60
2019-05-13T05:23:21.447Z,9.70
2019-05-13T05:27:06.666Z,9.70
2019-05-13T05:30:06.604Z,9.80
2019-05-13T05:33:41.240Z,9.90
2019-05-13T05:37:22.449Z,9.90
2019-05-13T05:39:58.200Z,10.00
2019-05-13T05:42:34.319Z,10.10
2019-05-13T05:45:07.049Z,10.10
2019-05-13T05:47:42.315Z,10.20
2019-05-13T05:50:14.614Z,10.30
2019-05-13T05:52:51.398Z,10.40
2019-05-13T05:55:25.244Z,10.50
2019-05-13T05:58:01.562Z,10.60
2019-05-13T06:00:35.650Z,10.60
2019-05-13T06:03:07.658Z,10.70
2019-05-13T06:05:41.847Z,10.80
2019-05-13T06:08:17.727Z,10.80
2019-05-13T06:10:52.870Z,10.90
2019-05-13T06:13:22.152Z,11.00
2019-05-13T06:15:53.885Z,11.00
2019-05-13T06:18:25.722Z,11.10
2019-05-13T06:20:57.578Z,11.20
2019-05-13T06:23:31.239Z,11.20
2019-05-13T06:26:08.184Z,11.30
2019-05-13T06:28:42.795Z,11.30
2019-05-13T06:31:21.532Z,11.40
2019-05-13T06:33:56.180Z,11.40
2019-05-13T06:36:31.447Z,11.60
2019-05-13T06:39:02.739Z,11.60
2019-05-13T06:41:34.459Z,11.70
2019-05-13T06:44:06.755Z,11.70
2019-05-13T06:46:38.596Z,11.80
2019-05-13T06:49:12.204Z,11.90
2019-05-13T06:51:43.854Z,11.90
2019-05-13T06:54:15.627Z,11.90
2019-05-13T06:56:51.586Z,12.00
2019-05-13T06:59:22.621Z,12.00
2019-05-13T07:01:55.793Z,12.00
2019-05-13T07:04:27.630Z,12.10
2019-05-13T07:07:10.089Z,12.10
2019-05-13T07:09:33.027Z,12.20
2019-05-13T07:12:04.771Z,12.20
2019-05-13T07:14:36.706Z,12.30
2019-05-13T07:17:12.108Z,12.30
2019-05-13T07:19:43.105Z,12.40
2019-05-13T07:22:14.930Z,12.50
2019-05-13T07:24:46.585Z,12.50
2019-05-13T07:27:18.277Z,12.60
2019-05-13T07:29:51.479Z,12.60
2019-05-13T07:32:23.580Z,12.70
2019-05-13T07:34:55.339Z,12.80
2019-05-13T07:37:28.687Z,12.80
2019-05-13T07:40:02.583Z,12.80
2019-05-13T07:42:35.570Z,12.90
2019-05-13T07:45:07.917Z,13.00
2019-05-13T07:47:41.913Z,13.00
2019-05-13T07:50:14.032Z,13.20
2019-05-13T07:52:45.750Z,13.20
2019-05-13T07:55:17.418Z,13.20
2019-05-13T07:57:51.388Z,13.30
2019-05-13T08:00:22.818Z,13.40
2019-05-13T08:02:54.638Z,13.40
2019-05-13T08:05:26.455Z,13.80
2019-05-13T08:07:58.357Z,13.60
2019-05-13T08:10:32.006Z,13.60
2019-05-13T08:13:03.525Z,13.60
2019-05-13T08:15:35.270Z,13.70
2019-05-13T08:18:07.116Z,13.80
2019-05-13T08:20:41.754Z,13.80
2019-05-13T08:23:12.445Z,13.90
2019-05-13T08:25:44.192Z,14.00
2019-05-13T08:28:15.904Z,14.00
2019-05-13T08:30:47.779Z,14.00
2019-05-13T08:33:19.464Z,14.10
2019-05-13T08:35:53.886Z,14.20
2019-05-13T08:38:24.781Z,14.20
2019-05-13T08:40:56.604Z,14.30
2019-05-13T08:43:28.307Z,14.40
2019-05-13T08:46:02.000Z,14.50
2019-05-13T08:48:33.937Z,14.60
2019-05-13T08:51:05.749Z,14.70
2019-05-13T08:53:37.527Z,14.80
2019-05-13T08:56:09.231Z,14.80
2019-05-13T08:58:41.361Z,14.90
2019-05-13T09:01:13.117Z,15.00
2019-05-13T09:03:45.795Z,15.10
2019-05-13T09:06:17.525Z,15.20
2019-05-13T09:08:54.052Z,15.30
2019-05-13T09:11:23.080Z,15.30
2019-05-13T09:13:54.817Z,15.40
2019-05-13T09:16:26.662Z,15.50
2019-05-13T09:18:58.451Z,15.60
2019-05-13T09:21:31.830Z,15.70
2019-05-13T09:24:20.714Z,15.70
2019-05-13T09:26:41.937Z,15.80
2019-05-13T09:29:12.697Z,15.90
2019-05-13T09:31:44.662Z,16.10
2019-05-13T09:34:16.366Z,16.20
2019-05-13T09:36:48.099Z,16.30
2019-05-13T09:39:21.672Z,16.50
2019-05-13T09:41:53.689Z,16.70
2019-05-13T09:44:25.534Z,16.80
2019-05-13T09:46:57.361Z,17.00
2019-05-13T09:49:29.214Z,17.10
2019-05-13T09:52:01.776Z,17.20
2019-05-13T09:54:33.721Z,17.40
2019-05-13T09:57:05.493Z,17.50
2019-05-13T09:59:37.248Z,17.70
2019-05-13T10:02:09.034Z,17.80
2019-05-13T10:04:43.631Z,18.00
2019-05-13T10:07:15.762Z,18.10
2019-05-13T10:09:48.374Z,18.30
2019-05-13T10:12:24.319Z,18.50
2019-05-13T10:14:55.437Z,18.80
2019-05-13T10:17:27.212Z,19.10
2019-05-13T10:19:59.923Z,19.40
2019-05-13T10:22:32.186Z,19.80
2019-05-13T10:25:04.504Z,20.20
2019-05-13T10:27:37.691Z,20.60
2019-05-13T10:30:11.909Z,21.00
2019-05-13T10:32:43.711Z,21.40
2019-05-13T10:35:16.078Z,21.80
2019-05-13T10:38:06.805Z,22.10
2019-05-13T10:40:38.570Z,22.50
2019-05-13T10:43:27.049Z,23.00
2019-05-13T10:45:43.938Z,23.30
2019-05-13T10:48:16.344Z,23.70
2019-05-13T10:50:48.352Z,24.10
2019-05-13T10:53:22.170Z,24.50
2019-05-13T10:55:54.359Z,24.90
2019-05-13T10:58:26.116Z,25.20
2019-05-13T11:00:57.968Z,25.60
2019-05-13T11:03:32.933Z,25.90
2019-05-13T11:06:03.334Z,26.20
2019-05-13T11:08:35.235Z,26.40
2019-05-13T11:11:07.570Z,26.60
2019-05-13T11:13:54.027Z,26.90
2019-05-13T11:16:13.349Z,27.10
2019-05-13T11:18:45.687Z,27.30
2019-05-13T11:21:18.128Z,27.50
2019-05-13T11:23:51.765Z,27.80
2019-05-13T11:26:26.247Z,28.00
2019-05-13T11:28:59.603Z,28.20
2019-05-13T11:31:32.836Z,28.50
2019-05-13T11:34:05.384Z,28.70
2019-05-13T11:36:37.685Z,29.00
2019-05-13T11:39:12.951Z,29.20
2019-05-13T11:41:44.268Z,29.50
2019-05-13T11:44:17.309Z,29.70
2019-05-13T11:46:52.371Z,30.00
2019-05-13T11:49:23.654Z,30.20
2019-05-13T11:51:56.067Z,30.40
2019-05-13T11:54:28.436Z,30.60
2019-05-13T11:57:05.790Z,30.80
2019-05-13T11:59:34.839Z,31.00
2019-05-13T12:02:08.770Z,31.10
2019-05-13T12:04:43.243Z,31.30
2019-05-13T12:07:15.901Z,31.50
2019-05-13T12:09:48.203Z,31.60
2019-05-13T12:12:23.500Z,31.70
2019-05-13T12:15:22.223Z,31.90
2019-05-13T12:17:34.017Z,32.00
2019-05-13T12:20:06.013Z,32.20
2019-05-13T12:22:38.332Z,32.30
2019-05-13T12:25:13.775Z,32.40
2019-05-13T12:27:45.225Z,32.40
2019-05-13T12:30:17.607Z,32.50
2019-05-13T12:32:51.898Z,32.60
2019-05-13T12:35:24.005Z,32.60
2019-05-13T12:37:56.263Z,32.70
2019-05-13T12:40:33.859Z,32.80
2019-05-13T12:43:03.922Z,32.80
2019-05-13T12:45:37.297Z,32.90
2019-05-13T12:48:13.662Z,32.90
2019-05-13T12:50:43.894Z,32.90
2019-05-13T12:53:17.881Z,33.00
2019-05-13T12:55:55.885Z,33.00
2019-05-13T12:58:27.391Z,33.00
2019-05-13T13:01:01.459Z,33.10
2019-05-13T13:03:34.701Z,33.10
2019-05-13T13:06:27.126Z,33.20
2019-05-13T13:08:48.564Z,33.20
2019-05-13T13:11:16.758Z,33.20
2019-05-13T13:14:09.548Z,33.10
2019-05-13T13:16:23.176Z,33.00
2019-05-13T13:18:55.654Z,32.80
2019-05-13T13:21:34.353Z,32.50
2019-05-13T13:24:04.697Z,32.20
2019-05-13T13:26:37.701Z,31.70
2019-05-13T13:29:11.787Z,31.20
2019-05-13T13:31:45.591Z,30.70
2019-05-13T13:34:18.706Z,30.20
2019-05-13T13:36:52.785Z,29.60
2019-05-13T13:39:25.726Z,29.00
2019-05-13T13:41:58.775Z,28.50
2019-05-13T13:44:35.139Z,27.90
2019-05-13T13:47:04.169Z,27.40
2019-05-13T13:49:36.035Z,27.00
2019-05-13T13:52:14.143Z,26.50
2019-05-13T13:54:44.242Z,26.10
2019-05-13T13:57:16.718Z,25.70
2019-05-13T14:00:19.283Z,25.40
2019-05-13T14:02:25.223Z,25.10
2019-05-13T14:05:05.662Z,24.80
2019-05-13T14:07:45.792Z,24.50
2019-05-13T14:10:18.798Z,24.20
2019-05-13T14:12:52.500Z,24.00
2019-05-13T14:15:24.194Z,23.80
2019-05-13T14:17:56.226Z,23.70
2019-05-13T14:20:28.001Z,23.50
2019-05-13T14:23:02.799Z,23.40
2019-05-13T14:25:35.477Z,23.20
2019-05-13T14:28:07.848Z,23.00
2019-05-13T14:30:42.031Z,22.90
2019-05-13T14:33:14.614Z,22.80
2019-05-13T14:35:46.580Z,22.90
2019-05-13T14:38:18.450Z,22.60
2019-05-13T14:40:51.905Z,22.60
2019-05-13T14:43:23.775Z,22.50
2019-05-13T14:45:55.559Z,22.40
2019-05-13T14:48:27.549Z,22.40
2019-05-13T14:51:02.103Z,22.30
2019-05-13T14:53:34.232Z,22.30
2019-05-13T14:56:06.023Z,22.30
2019-05-13T14:58:37.759Z,22.30
2019-05-13T15:01:15.858Z,22.20
2019-05-13T15:03:42.944Z,22.20
2019-05-13T15:06:14.674Z,22.20
2019-05-13T15:08:46.523Z,22.10
2019-05-13T15:11:18.303Z,22.10
2019-05-13T15:13:51.859Z,22.10
2019-05-13T15:16:23.650Z,22.00
2019-05-13T15:18:55.558Z,22.00
2019-05-13T15:21:32.115Z,22.00
2019-05-13T15:24:04.164Z,22.00
2019-05-13T15:26:38.327Z,22.00
2019-05-13T15:29:11.503Z,22.00
2019-05-13T15:31:43.482Z,22.10
2019-05-13T15:34:15.293Z,22.10
2019-05-13T15:36:50.953Z,22.10
2019-05-13T15:39:23.428Z,22.10
2019-05-13T15:41:55.324Z,22.10
2019-05-13T15:44:27.136Z,22.10
2019-05-13T15:47:02.244Z,22.00
2019-05-13T15:49:32.567Z,22.00
2019-05-13T15:52:04.378Z,21.90
2019-05-13T15:54:36.288Z,21.80
2019-05-13T15:57:08.038Z,21.70
2019-05-13T15:59:41.509Z,21.60
2019-05-13T16:02:13.709Z,21.60
2019-05-13T16:04:52.641Z,21.50
2019-05-13T16:07:19.065Z,21.40
2019-05-13T16:09:52.628Z,21.30
2019-05-13T16:12:24.659Z,21.30
2019-05-13T16:14:56.789Z,21.20
2019-05-13T16:17:38.787Z,21.20
2019-05-13T16:20:02.468Z,21.20
2019-05-13T16:22:34.214Z,21.10
2019-05-13T16:25:06.463Z,21.10
2019-05-13T16:27:38.308Z,21.10
2019-05-13T16:30:11.791Z,21.00
2019-05-13T16:33:15.313Z,21.00
2019-05-13T16:35:47.214Z,21.00
2019-05-13T16:38:18.956Z,21.00
2019-05-13T16:40:51.528Z,21.00
2019-05-13T16:43:23.546Z,21.00
2019-05-13T16:45:56.539Z,21.00
2019-05-13T16:48:28.281Z,21.10
2019-05-13T16:51:00.527Z,21.00
2019-05-13T16:53:32.341Z,21.00
2019-05-13T16:56:04.294Z,21.00
2019-05-13T16:58:36.213Z,20.90
2019-05-13T17:01:11.478Z,20.90
2019-05-13T17:03:43.951Z,20.80
2019-05-13T17:06:15.669Z,20.70
2019-05-13T17:08:47.432Z,20.60
2019-05-13T17:11:19.310Z,20.60
2019-05-13T17:13:51.503Z,20.50
2019-05-13T17:16:23.444Z,20.40
2019-05-13T17:19:02.970Z,20.30
2019-05-13T17:21:41.142Z,20.30
2019-05-13T17:24:12.933Z,20.20
2019-05-13T17:26:47.083Z,20.10
2019-05-13T17:29:22.284Z,20.00
2019-05-13T17:31:54.016Z,20.00
2019-05-13T17:34:28.743Z,20.00
2019-05-13T17:37:04.369Z,19.90
2019-05-13T17:39:41.508Z,19.80
2019-05-13T17:42:15.176Z,19.80
2019-05-13T17:44:47.094Z,19.70
2019-05-13T17:47:18.949Z,19.60
2019-05-13T17:49:53.909Z,19.60
2019-05-13T17:52:24.232Z,19.50
2019-05-13T17:54:56.240Z,19.50
2019-05-13T17:57:32.078Z,19.50
2019-05-13T18:00:06.757Z,19.40
2019-05-13T18:02:38.530Z,19.40
2019-05-13T18:05:12.308Z,19.40
2019-05-13T18:07:47.761Z,19.30
2019-05-13T18:10:22.390Z,19.20
2019-05-13T18:12:53.321Z,19.20
2019-05-13T18:15:26.161Z,19.10
2019-05-13T18:17:58.141Z,19.10
2019-05-13T18:20:33.423Z,19.00
2019-05-13T18:23:05.357Z,19.00
2019-05-13T18:25:37.078Z,19.00
2019-05-13T18:28:08.818Z,18.90
2019-05-13T18:30:41.057Z,18.90
2019-05-13T18:33:12.866Z,18.90
2019-05-13T18:35:44.709Z,18.80
2019-05-13T18:38:16.570Z,18.80
2019-05-13T18:40:48.449Z,18.70
2019-05-13T18:43:21.590Z,18.70
2019-05-13T18:45:53.554Z,18.60
2019-05-13T18:48:25.601Z,18.60
2019-05-13T18:50:57.454Z,18.60
2019-05-13T18:53:32.164Z,18.50
2019-05-13T18:56:04.108Z,18.50
2019-05-13T18:58:35.909Z,18.40
2019-05-13T19:01:07.715Z,18.30
2019-05-13T19:03:41.466Z,18.30
2019-05-13T19:06:14.894Z,18.20
2019-05-13T19:08:46.885Z,17.00
2019-05-13T19:11:18.713Z,18.10
2019-05-13T19:13:52.130Z,18.00
2019-05-13T19:16:24.153Z,18.00
2019-05-13T19:18:56.034Z,17.90
2019-05-13T19:21:27.789Z,17.90
2019-05-13T19:24:01.903Z,17.80
2019-05-13T19:26:33.205Z,17.70
2019-05-13T19:29:05.169Z,17.70
2019-05-13T19:31:38.153Z,17.60
2019-05-13T19:34:12.477Z,17.60
2019-05-13T19:36:44.715Z,17.50
2019-05-13T19:39:16.574Z,17.50
2019-05-13T19:41:48.459Z,17.40
2019-05-13T19:44:22.079Z,17.40
2019-05-13T19:46:54.128Z,17.30
2019-05-13T19:49:32.696Z,17.20
2019-05-13T19:52:01.883Z,17.20
2019-05-13T19:54:32.925Z,17.10
2019-05-13T19:57:06.360Z,17.10
2019-05-13T19:59:42.493Z,17.00
2019-05-13T20:02:13.540Z,17.00
2019-05-13T20:04:45.309Z,16.90
2019-05-13T20:07:17.125Z,16.90
2019-05-13T20:09:48.950Z,16.80
2019-05-13T20:12:21.279Z,16.80
2019-05-13T20:14:53.269Z,16.70
2019-05-13T20:17:25.391Z,16.70
2019-05-13T20:19:58.368Z,16.60
2019-05-13T20:22:31.305Z,16.50
2019-05-13T20:25:03.196Z,16.50
2019-05-13T20:27:35.113Z,16.50
2019-05-13T20:30:08.134Z,16.40
2019-05-13T20:32:39.917Z,16.40
2019-05-13T20:35:12.163Z,16.30
2019-05-13T20:37:43.936Z,16.30
2019-05-13T20:40:15.924Z,16.20
2019-05-13T20:42:47.919Z,16.20
2019-05-13T20:45:22.231Z,16.10
2019-05-13T20:47:53.373Z,16.10
2019-05-13T20:50:25.275Z,16.10
2019-05-13T20:52:57.116Z,16.00
2019-05-13T20:55:29.062Z,15.90
2019-05-13T20:58:01.485Z,15.90
2019-05-13T21:00:33.299Z,15.80
2019-05-13T21:03:05.076Z,15.80
2019-05-13T21:05:37.105Z,15.80
2019-05-13T21:08:08.946Z,15.70
2019-05-13T21:10:42.126Z,15.60
2019-05-13T21:13:14.511Z,15.60
2019-05-13T21:15:46.368Z,15.60
2019-05-13T21:18:18.137Z,15.50
2019-05-13T21:20:51.097Z,15.50
2019-05-13T21:23:23.449Z,15.40
2019-05-13T21:25:56.581Z,15.40
2019-05-13T21:28:28.282Z,15.30
2019-05-13T21:31:02.223Z,15.30
2019-05-13T21:33:33.698Z,15.30
2019-05-13T21:36:06.885Z,15.20
2019-05-13T21:38:38.650Z,15.10
2019-05-13T21:41:11.774Z,15.10
2019-05-13T21:43:43.671Z,15.10
2019-05-13T21:46:15.796Z,15.00
2019-05-13T21:48:47.592Z,14.90
2019-05-13T21:51:21.947Z,14.90
2019-05-13T21:53:53.085Z,14.90
2019-05-13T21:56:25.020Z,14.80
2019-05-13T21:58:56.851Z,14.80
2019-05-13T22:01:31.340Z,14.70
2019-05-13T22:04:02.163Z,14.70
2019-05-13T22:06:33.914Z,14.60
2019-05-13T22:09:11.753Z,14.60
2019-05-13T22:11:43.364Z,14.50
2019-05-13T22:14:15.158Z,14.50
2019-05-13T22:16:47.000Z,14.40
2019-05-13T22:19:18.759Z,14.40
2019-05-13T22:21:51.522Z,14.40
2019-05-13T22:24:23.817Z,14.30
2019-05-13T22:26:55.722Z,14.30
2019-05-13T22:29:27.481Z,14.20
2019-05-13T22:31:59.286Z,14.20
2019-05-13T22:34:31.964Z,14.20
2019-05-13T22:37:04.011Z,14.20
2019-05-13T22:39:35.699Z,14.10
2019-05-13T22:42:12.411Z,14.10
2019-05-13T22:44:43.672Z,14.00
2019-05-13T22:47:15.511Z,14.00
2019-05-13T22:49:48.373Z,14.00
2019-05-13T22:52:21.866Z,13.90
2019-05-13T22:54:55.524Z,13.90
2019-05-13T22:57:27.278Z,13.90
2019-05-13T22:59:58.972Z,13.80
2019-05-13T23:02:33.403Z,13.80
2019-05-13T23:05:04.385Z,13.80
2019-05-13T23:07:36.113Z,13.70
2019-05-13T23:10:08.382Z,13.70
2019-05-13T23:12:41.914Z,13.70
2019-05-13T23:15:13.774Z,13.70
2019-05-13T23:17:48.384Z,13.60
2019-05-13T23:20:21.095Z,13.60
2019-05-13T23:22:52.279Z,13.60
2019-05-13T23:25:23.957Z,13.50
2019-05-13T23:27:55.737Z,13.50
2019-05-13T23:30:27.447Z,13.50
2019-05-13T23:32:59.279Z,13.40
2019-05-13T23:35:32.243Z,13.40
2019-05-13T23:38:06.493Z,13.40
2019-05-13T23:40:38.289Z,13.30
2019-05-13T23:43:11.307Z,13.30
2019-05-13T23:45:43.184Z,13.30
2019-05-13T23:48:14.960Z,13.20
2019-05-13T23:50:46.729Z,13.20
2019-05-13T23:53:18.477Z,13.10
2019-05-13T23:55:51.991Z,13.10
2019-05-13T23:58:23.746Z,13.10
